Time;durP1;ratioP1;P1;durP2;ratioP2;P2;SDS_P1;SDS_P2;PMS_P1;PMS_P2;Temp;Humidity;BMP_temperature;BMP_pressure;BME280_temperature;BME280_humidity;BME280_pressure;Samples;Min_cycle;Max_cycle;Signal;HPM_P1;HPM_P2
2022/09/24 00:02:13;;;;;;;5.30;3.20;;;;;;;11.05;85.51;98393.41;4970298;28;20228;-53
2022/09/24 00:04:39;;;;;;;5.93;3.03;;;;;;;10.97;84.92;98393.38;4975293;28;20780;-52
2022/09/24 00:07:06;;;;;;;5.53;2.80;;;;;;;10.88;85.48;98389.94;4971420;28;20231;-52
2022/09/24 00:09:32;;;;;;;4.00;3.37;;;;;;;10.82;85.30;98387.13;4974952;28;20243;-50
2022/09/24 00:12:01;;;;;;;6.07;2.97;;;;;;;10.77;86.43;98385.00;4973118;28;20239;-53
2022/09/24 00:14:27;;;;;;;4.10;2.73;;;;;;;10.73;86.92;98381.09;4972225;28;20236;-53
2022/09/24 00:16:54;;;;;;;4.17;2.80;;;;;;;10.74;87.11;98382.72;4976303;28;20313;-52
2022/09/24 00:19:20;;;;;;;7.33;3.17;;;;;;;10.68;86.74;98388.56;4971620;28;20295;-51
2022/09/24 00:21:47;;;;;;;3.67;2.73;;;;;;;10.62;87.58;98369.94;4975765;28;20332;-54
2022/09/24 00:26:48;;;;;;;4.90;2.70;;;;;;;10.54;88.48;98372.53;4969494;28;20299;-51
2022/09/24 00:27:05;;;;;;;5.20;3.10;;;;;;;10.40;87.75;98366.13;4955915;28;20240;-50
2022/09/24 00:29:32;;;;;;;4.30;2.73;;;;;;;10.37;89.60;98362.94;4954556;28;20228;-54
2022/09/24 00:31:59;;;;;;;4.70;3.00;;;;;;;10.31;89.67;98364.41;4974991;28;20233;-53
2022/09/24 00:34:26;;;;;;;4.47;3.30;;;;;;;10.28;89.69;98362.09;4971015;28;20309;-54
2022/09/24 00:36:53;;;;;;;4.30;3.03;;;;;;;10.28;88.46;98367.31;4974189;28;20229;-53
2022/09/24 00:39:19;;;;;;;8.80;3.27;;;;;;;10.17;89.05;98356.19;4971927;28;20233;-54
2022/09/24 00:41:47;;;;;;;3.73;3.10;;;;;;;10.15;88.59;98362.50;4976135;28;20278;-51
2022/09/24 00:45:01;;;;;;;7.43;3.70;;;;;;;10.25;89.41;98357.19;4972185;28;20246;-54
2022/09/24 00:47:33;;;;;;;5.60;3.00;;;;;;;10.39;88.80;98361.00;4936470;28;20295;-54
2022/09/24 00:50:10;;;;;;;8.97;3.03;;;;;;;10.47;88.06;98358.47;4975575;28;20283;-52
2022/09/24 00:52:41;;;;;;;7.40;3.17;;;;;;;10.57;88.97;98366.19;4971787;28;20307;-51
2022/09/24 00:55:09;;;;;;;6.97;3.45;;;;;;;10.69;89.83;98359.69;4955043;28;20445;-55
2022/09/24 00:57:37;;;;;;;5.50;3.30;;;;;;;10.80;90.88;98348.16;4971556;28;20454;-54
2022/09/24 01:00:06;;;;;;;5.60;3.10;;;;;;;10.92;89.48;98340.81;4969556;28;20291;-51
2022/09/24 01:02:36;;;;;;;7.73;3.57;;;;;;;10.96;89.99;98349.16;4971162;28;20243;-52
2022/09/24 01:05:03;;;;;;;3.93;2.77;;;;;;;10.96;89.74;98347.34;4973670;28;20246;-51
2022/09/24 01:07:30;;;;;;;4.47;3.30;;;;;;;10.99;89.24;98341.00;4968352;28;21618;-53
2022/09/24 01:09:56;;;;;;;5.60;3.20;;;;;;;10.95;88.78;98335.28;4975702;28;20259;-52
2022/09/24 01:12:28;;;;;;;3.87;2.70;;;;;;;10.91;88.45;98332.19;4965562;28;20312;-54
2022/09/24 01:15:11;;;;;;;4.37;2.80;;;;;;;10.98;87.26;98326.31;4973457;28;20449;-54
2022/09/24 01:17:46;;;;;;;5.97;2.77;;;;;;;11.02;86.84;98322.41;4971876;28;20249;-55
2022/09/24 01:20:54;;;;;;;6.80;2.80;;;;;;;10.98;87.69;98321.09;4971630;28;20289;-53
2022/09/24 01:23:39;;;;;;;6.50;3.17;;;;;;;10.96;88.61;98316.03;4968698;28;20263;-52
2022/09/24 01:26:27;;;;;;;3.63;2.67;;;;;;;10.96;88.86;98315.22;4971328;28;20259;-55
2022/09/24 01:29:05;;;;;;;7.10;3.10;;;;;;;11.00;89.35;98311.31;4971414;28;20246;-54
2022/09/24 01:31:39;;;;;;;5.30;2.93;;;;;;;11.06;89.50;98313.28;4972113;28;20225;-53
2022/09/24 01:34:08;;;;;;;5.07;2.73;;;;;;;10.99;89.41;98307.06;4967473;28;20332;-55
2022/09/24 01:36:36;;;;;;;4.40;2.97;;;;;;;10.98;89.81;98306.22;4974240;28;20591;-55
2022/09/24 01:39:06;;;;;;;3.40;2.77;;;;;;;11.00;89.74;98296.44;4973628;28;20884;-52
2022/09/24 01:41:35;;;;;;;4.10;2.90;;;;;;;11.10;90.47;98304.13;4971238;28;20266;-54
2022/09/24 01:44:03;;;;;;;8.37;3.00;;;;;;;11.11;90.62;98297.09;4972935;28;20243;-54
2022/09/24 01:46:30;;;;;;;4.27;2.87;;;;;;;11.13;90.75;98289.94;4971953;28;20284;-55
2022/09/24 01:48:58;;;;;;;4.17;2.60;;;;;;;11.16;90.18;98292.22;4972751;28;20735;-52
2022/09/24 01:51:28;;;;;;;7.13;3.10;;;;;;;11.21;90.15;98298.56;4969479;28;20307;-55
2022/09/24 01:54:00;;;;;;;2.77;2.50;;;;;;;11.26;90.46;98295.47;4975231;28;20228;-55
2022/09/24 01:56:32;;;;;;;3.93;2.83;;;;;;;11.29;88.83;98303.00;4970526;28;20720;-52
2022/09/24 01:59:02;;;;;;;5.77;3.50;;;;;;;11.30;88.81;98320.31;4970582;28;20235;-53
2022/09/24 02:01:32;;;;;;;6.20;3.77;;;;;;;11.33;87.80;98313.91;4970958;28;20234;-54
2022/09/24 02:04:06;;;;;;;6.10;3.00;;;;;;;11.42;86.96;98309.53;4975131;28;20303;-54
2022/09/24 02:06:38;;;;;;;5.00;3.00;;;;;;;11.44;87.65;98307.56;4970938;28;20243;-55
2022/09/24 02:09:05;;;;;;;4.90;3.13;;;;;;;11.48;87.74;98312.28;4970330;28;20244;-53
2022/09/24 02:11:36;;;;;;;6.40;3.03;;;;;;;11.47;88.04;98307.25;4978738;28;20240;-52
2022/09/24 02:14:08;;;;;;;4.90;2.87;;;;;;;11.52;87.73;98307.56;4977818;28;20240;-52
2022/09/24 02:16:39;;;;;;;5.80;4.00;;;;;;;11.55;86.10;98306.41;4974207;28;20661;-55
2022/09/24 02:19:13;;;;;;;6.37;3.47;;;;;;;11.63;83.67;98302.00;4972541;28;20734;-53
2022/09/24 02:21:42;;;;;;;9.00;4.43;;;;;;;11.73;83.42;98309.66;4975875;28;20243;-53
2022/09/24 02:24:15;;;;;;;8.00;3.53;;;;;;;11.79;83.76;98310.78;4974125;28;20239;-52
2022/09/24 02:26:42;;;;;;;5.27;3.23;;;;;;;11.78;84.30;98314.38;4977346;28;20232;-54
2022/09/24 02:29:09;;;;;;;7.27;3.33;;;;;;;11.75;84.73;98314.69;4973554;28;20240;-53
2022/09/24 02:31:38;;;;;;;4.70;3.23;;;;;;;11.74;85.22;98308.66;4977921;28;20295;-54
2022/09/24 02:34:22;;;;;;;7.00;3.53;;;;;;;11.71;85.55;98309.00;4975618;28;20574;-55
2022/09/24 02:36:49;;;;;;;8.37;3.43;;;;;;;11.71;85.59;98306.38;4977420;28;20239;-55
2022/09/24 02:39:17;;;;;;;5.13;3.40;;;;;;;11.66;86.86;98303.44;4974148;28;20248;-50
2022/09/24 02:41:46;;;;;;;6.53;3.70;;;;;;;11.65;86.62;98296.59;4978502;28;20779;-55
2022/09/24 02:44:14;;;;;;;4.20;3.60;;;;;;;11.66;86.68;98293.00;4974384;28;20910;-52
2022/09/24 02:46:41;;;;;;;5.80;3.80;;;;;;;11.69;86.49;98291.84;4975437;28;20664;-52
2022/09/24 02:49:09;;;;;;;4.17;3.23;;;;;;;11.63;86.62;98285.47;4973244;28;20228;-53
2022/09/24 02:51:36;;;;;;;6.13;3.47;;;;;;;11.60;87.65;98284.03;4978222;28;20228;-53
2022/09/24 02:54:03;;;;;;;6.23;3.10;;;;;;;11.59;87.84;98278.94;4977063;28;20233;-52
2022/09/24 02:56:30;;;;;;;6.70;3.00;;;;;;;11.55;87.93;98281.09;4967841;28;20238;-55
2022/09/24 02:58:56;;;;;;;3.50;2.87;;;;;;;11.49;88.69;98276.53;4975230;28;20291;-53
2022/09/24 03:04:05;;;;;;;4.60;3.07;;;;;;;11.46;88.44;98276.84;5612667;23;20391;-54
2022/09/24 03:06:33;;;;;;;5.50;2.90;;;;;;;11.51;88.33;98277.97;4957472;28;20320;-54
2022/09/24 03:09:01;;;;;;;7.60;3.17;;;;;;;11.47;88.58;98281.09;4962105;28;20758;-54
2022/09/24 03:11:28;;;;;;;4.17;3.20;;;;;;;11.46;89.60;98279.47;4959717;28;20292;-51
2022/09/24 03:13:54;;;;;;;4.80;3.00;;;;;;;11.49;89.60;98279.16;4969044;28;20328;-53
2022/09/24 03:16:21;;;;;;;6.13;3.10;;;;;;;11.52;89.63;98284.84;4975055;28;20314;-53
2022/09/24 03:18:47;;;;;;;4.73;3.10;;;;;;;11.59;88.27;98295.47;4962512;28;20791;-53
2022/09/24 03:21:16;;;;;;;4.97;3.53;;;;;;;11.58;88.87;98293.00;4972310;28;20332;-51
2022/09/24 03:23:45;;;;;;;6.10;3.43;;;;;;;11.59;88.80;98295.47;4974311;28;20319;-52
2022/09/24 03:26:11;;;;;;;3.83;3.00;;;;;;;11.63;89.70;98298.56;4972519;28;20685;-55
2022/09/24 03:28:38;;;;;;;6.07;3.70;;;;;;;11.66;89.45;98293.00;4970027;28;20785;-52
2022/09/24 03:31:05;;;;;;;7.63;3.90;;;;;;;11.62;90.03;98294.31;4972982;28;20748;-54
2022/09/24 03:33:33;;;;;;;9.53;3.90;;;;;;;11.56;90.20;98287.13;4976752;28;20328;-51
2022/09/24 03:36:02;;;;;;;5.97;3.90;;;;;;;11.55;90.32;98288.94;4968161;28;20583;-55
2022/09/24 03:38:29;;;;;;;7.83;4.20;;;;;;;11.54;90.96;98281.25;4974678;28;20275;-54
2022/09/24 03:40:57;;;;;;;5.33;3.90;;;;;;;11.47;91.17;98275.88;4975048;28;20251;-51
2022/09/24 03:43:24;;;;;;;10.83;4.13;;;;;;;11.45;92.10;98281.25;4974160;28;20236;-53
2022/09/24 03:45:51;;;;;;;7.40;3.90;;;;;;;11.44;92.55;98284.03;4975740;28;20233;-51
2022/09/24 03:48:19;;;;;;;7.73;4.00;;;;;;;11.46;92.11;98282.09;4973147;28;20748;-52
2022/09/24 03:50:46;;;;;;;5.50;3.43;;;;;;;11.48;91.93;98272.28;4975887;28;20260;-54
2022/09/24 03:53:14;;;;;;;5.53;3.43;;;;;;;11.39;92.15;98263.63;4972956;28;20323;-53
2022/09/24 03:55:43;;;;;;;11.10;3.73;;;;;;;11.37;92.16;98262.97;4973380;28;20316;-51
2022/09/24 03:58:11;;;;;;;5.70;3.70;;;;;;;11.29;92.83;98271.63;4975025;28;20245;-53
2022/09/24 04:00:38;;;;;;;10.77;4.07;;;;;;;11.21;92.34;98263.81;4975905;28;20251;-51
2022/09/24 04:03:05;;;;;;;4.63;3.70;;;;;;;11.06;92.71;98255.81;4971740;28;20790;-53
2022/09/24 04:05:31;;;;;;;5.97;3.63;;;;;;;10.99;92.39;98252.22;4966913;28;20251;-51
2022/09/24 04:07:58;;;;;;;7.13;4.33;;;;;;;10.91;94.28;98247.78;4977798;28;20279;-51
2022/09/24 04:10:24;;;;;;;6.37;3.93;;;;;;;10.77;93.94;98244.84;4973435;28;20267;-51
2022/09/24 04:12:51;;;;;;;5.97;3.60;;;;;;;10.67;93.79;98238.16;4974584;28;20638;-54
2022/09/24 04:15:20;;;;;;;7.50;3.90;;;;;;;10.58;94.09;98242.53;4969820;28;20231;-52
2022/09/24 04:17:50;;;;;;;6.77;3.77;;;;;;;10.46;95.11;98242.00;4975246;28;20231;-51
2022/09/24 04:20:19;;;;;;;9.13;3.97;;;;;;;10.43;95.39;98237.13;4972975;28;20682;-51
2022/09/24 04:22:46;;;;;;;6.00;3.97;;;;;;;10.31;95.43;98240.00;4973287;28;20239;-53
2022/09/24 04:25:12;;;;;;;9.73;4.07;;;;;;;10.27;96.78;98243.88;4969813;28;20234;-51
2022/09/24 04:27:40;;;;;;;5.03;3.77;;;;;;;10.28;96.68;98242.91;4976384;28;20248;-53
2022/09/24 04:30:08;;;;;;;7.43;4.73;;;;;;;10.28;98.14;98240.31;4964249;28;20224;-51
2022/09/24 04:32:36;;;;;;;9.40;4.00;;;;;;;10.30;97.54;98246.19;4974199;28;20716;-51
2022/09/24 04:35:02;;;;;;;4.97;4.20;;;;;;;10.36;97.56;98242.13;4975454;28;20261;-53
2022/09/24 04:37:29;;;;;;;5.57;4.07;;;;;;;10.33;97.29;98239.84;4973279;28;20688;-53
2022/09/24 04:39:55;;;;;;;6.10;4.03;;;;;;;10.36;97.43;98236.91;4974521;28;20270;-53
2022/09/24 04:42:22;;;;;;;5.50;4.17;;;;;;;10.40;98.24;98238.25;4945249;28;20223;-53
2022/09/24 04:44:48;;;;;;;8.80;4.93;;;;;;;10.42;98.54;98241.53;4971403;28;20302;-54
2022/09/24 04:47:15;;;;;;;6.90;4.47;;;;;;;10.48;98.96;98240.91;4968924;28;20326;-53
2022/09/24 04:49:44;;;;;;;6.23;4.63;;;;;;;10.50;98.75;98247.75;4969894;28;20917;-54
2022/09/24 04:52:13;;;;;;;8.63;4.13;;;;;;;10.56;98.80;98247.91;4971308;28;20229;-51
2022/09/24 04:54:45;;;;;;;4.60;4.00;;;;;;;10.57;99.36;98246.94;4973123;28;20242;-53
2022/09/24 04:57:13;;;;;;;5.50;4.20;;;;;;;10.57;99.30;98252.16;4973855;28;20306;-55
2022/09/24 04:59:39;;;;;;;8.30;4.80;;;;;;;10.62;99.77;98249.06;4974769;28;20264;-52
2022/09/24 05:02:07;;;;;;;7.83;4.67;;;;;;;10.62;99.58;98249.06;4970933;28;20300;-52
2022/09/24 05:04:34;;;;;;;7.50;4.67;;;;;;;10.67;100.00;98248.59;4974123;28;20236;-55
2022/09/24 05:07:02;;;;;;;7.10;4.60;;;;;;;10.68;100.00;98245.81;4975482;28;20313;-52
2022/09/24 05:09:30;;;;;;;7.10;4.73;;;;;;;10.70;100.00;98238.63;4970887;28;20262;-54
2022/09/24 05:11:56;;;;;;;9.30;5.40;;;;;;;10.73;100.00;98238.31;4967288;28;20224;-52
2022/09/24 05:14:23;;;;;;;8.50;5.23;;;;;;;10.77;100.00;98242.22;4963750;28;20304;-53
2022/09/24 05:16:49;;;;;;;8.47;5.20;;;;;;;10.80;100.00;98246.31;4973631;28;20260;-53
2022/09/24 05:19:16;;;;;;;9.43;6.37;;;;;;;10.83;100.00;98235.56;4972668;28;20253;-55
2022/09/24 05:21:42;;;;;;;6.50;4.40;;;;;;;10.86;100.00;98235.22;4975710;28;20485;-55
2022/09/24 05:24:10;;;;;;;7.03;4.90;;;;;;;10.86;100.00;98245.69;4971224;28;20279;-53
2022/09/24 05:29:20;;;;;;;261.53;178.23;;;;;;;10.93;100.00;98245.84;4969629;28;20296;-53
2022/09/24 05:31:47;;;;;;;103.23;68.93;;;;;;;10.98;100.00;98246.16;4972800;28;20262;-55
2022/09/24 05:34:14;;;;;;;23.27;13.67;;;;;;;11.00;100.00;98238.97;4971890;28;20259;-52
2022/09/24 05:36:42;;;;;;;20.53;15.27;;;;;;;11.04;100.00;98242.91;4973684;28;20358;-52
2022/09/24 05:39:11;;;;;;;21.33;12.47;;;;;;;11.14;100.00;98249.75;4973640;28;20229;-53
2022/09/24 05:41:38;;;;;;;18.00;10.87;;;;;;;11.17;100.00;98249.44;4970605;28;20242;-55
2022/09/24 05:44:05;;;;;;;11.53;6.80;;;;;;;11.29;100.00;98252.53;4966435;28;20522;-54
2022/09/24 05:46:32;;;;;;;13.57;5.70;;;;;;;11.41;100.00;98245.97;4976359;28;20251;-52
2022/09/24 05:48:59;;;;;;;8.97;5.70;;;;;;;11.42;100.00;98245.00;4972647;28;20231;-55
2022/09/24 05:51:26;;;;;;;8.63;7.63;;;;;;;11.46;100.00;98254.13;4957228;28;20287;-54
2022/09/24 05:53:52;;;;;;;9.30;6.70;;;;;;;11.54;100.00;98257.72;4970755;28;20291;-53
2022/09/24 05:56:20;;;;;;;10.03;6.63;;;;;;;11.60;99.43;98268.34;4973902;28;20230;-52
2022/09/24 05:58:48;;;;;;;7.83;6.17;;;;;;;11.65;99.79;98258.22;4974547;28;20237;-52
2022/09/24 06:01:15;;;;;;;7.63;5.70;;;;;;;11.72;99.70;98260.97;4976338;28;20286;-52
2022/09/24 06:03:42;;;;;;;9.43;5.80;;;;;;;11.78;99.28;98265.53;4975552;28;20877;-53
2022/09/24 06:06:08;;;;;;;9.90;6.20;;;;;;;11.85;99.35;98262.22;4975920;28;20334;-53
2022/09/24 06:08:35;;;;;;;12.13;7.27;;;;;;;11.90;99.07;98260.72;4975014;28;20240;-54
2022/09/24 06:11:04;;;;;;;7.87;6.27;;;;;;;11.97;98.79;98260.88;4977272;28;20665;-52
2022/09/24 06:13:33;;;;;;;8.53;6.03;;;;;;;12.03;98.78;98262.88;4974328;28;20287;-55
2022/09/24 06:16:00;;;;;;;10.60;6.37;;;;;;;12.09;98.77;98262.19;4977729;28;20742;-53
2022/09/24 06:18:27;;;;;;;10.43;7.13;;;;;;;12.16;98.06;98270.16;4974156;28;20233;-55
2022/09/24 06:20:54;;;;;;;13.37;8.50;;;;;;;12.22;98.10;98279.13;4977603;28;20305;-54
2022/09/24 06:23:21;;;;;;;13.30;9.37;;;;;;;12.27;97.58;98278.63;4975018;28;20583;-55
2022/09/24 06:25:49;;;;;;;11.37;7.80;;;;;;;12.36;96.31;98281.03;4975734;28;20628;-54
2022/09/24 06:28:16;;;;;;;18.13;8.50;;;;;;;12.45;95.51;98279.19;4972306;28;20250;-54
2022/09/24 06:30:44;;;;;;;12.30;7.50;;;;;;;12.47;93.92;98266.75;4976847;28;20276;-52
2022/09/24 06:33:12;;;;;;;12.20;7.20;;;;;;;12.53;92.42;98270.47;4975713;28;20344;-53
2022/09/24 06:35:40;;;;;;;10.33;7.60;;;;;;;12.58;90.81;98267.34;4975752;28;20237;-53
2022/09/24 06:38:10;;;;;;;10.10;7.13;;;;;;;12.69;90.44;98264.34;4967754;28;20229;-53
2022/09/24 06:40:37;;;;;;;9.97;7.13;;;;;;;12.69;92.46;98282.69;4976293;28;20233;-52
2022/09/24 06:43:05;;;;;;;12.47;7.53;;;;;;;12.72;90.19;98284.91;4967368;28;20390;-52
2022/09/24 06:45:31;;;;;;;13.63;8.77;;;;;;;12.64;90.25;98279.75;4955536;28;20230;-54
2022/09/24 06:48:01;;;;;;;10.40;7.73;;;;;;;12.75;89.88;98281.97;4977263;28;20301;-55
2022/09/24 06:50:30;;;;;;;10.87;7.10;;;;;;;12.73;90.40;98291.00;4973621;28;20240;-52
2022/09/24 06:52:57;;;;;;;15.33;8.17;;;;;;;12.75;89.79;98284.56;4977377;28;20231;-53
2022/09/24 06:55:24;;;;;;;11.37;9.10;;;;;;;12.67;90.70;98288.06;4974082;28;20267;-52
2022/09/24 06:57:50;;;;;;;10.97;8.50;;;;;;;12.69;90.54;98293.94;4975869;28;20629;-53
2022/09/24 07:00:17;;;;;;;10.17;8.17;;;;;;;12.75;91.02;98291.63;4972528;28;20263;-54
2022/09/24 07:02:50;;;;;;;13.00;8.30;;;;;;;12.81;91.36;98296.19;4965260;28;20692;-55
2022/09/24 07:05:18;;;;;;;11.97;8.47;;;;;;;12.79;90.70;98292.91;4972336;28;20226;-53
2022/09/24 07:07:45;;;;;;;13.63;7.53;;;;;;;12.83;90.76;98291.59;4975965;28;20240;-55
2022/09/24 07:10:12;;;;;;;13.00;8.07;;;;;;;12.85;89.99;98295.66;4973892;28;20226;-53
2022/09/24 07:12:41;;;;;;;12.03;7.80;;;;;;;12.91;89.25;98294.16;4976284;28;20323;-52
2022/09/24 07:15:09;;;;;;;14.93;8.40;;;;;;;12.96;89.76;98293.63;4974741;28;20246;-54
2022/09/24 07:17:36;;;;;;;10.60;7.87;;;;;;;13.05;89.93;98295.19;4975350;28;20721;-52
2022/09/24 07:20:03;;;;;;;12.03;8.60;;;;;;;13.05;89.59;98302.25;4976747;28;20245;-51
2022/09/24 07:22:31;;;;;;;18.10;8.33;;;;;;;13.12;90.26;98300.56;4973064;28;20240;-53
2022/09/24 07:24:57;;;;;;;10.10;8.37;;;;;;;13.04;90.27;98309.28;4977696;28;20309;-54
2022/09/24 07:27:24;;;;;;;16.10;9.27;;;;;;;13.03;90.86;98297.16;4973188;28;20300;-52
2022/09/24 07:29:51;;;;;;;13.77;9.30;;;;;;;13.02;90.45;98300.78;4978098;28;20233;-54
2022/09/24 07:32:17;;;;;;;11.60;8.60;;;;;;;13.05;91.00;98310.91;4965946;28;20643;-54
2022/09/24 07:34:44;;;;;;;11.63;8.30;;;;;;;13.10;91.64;98305.16;4974675;28;21004;-52
2022/09/24 07:37:11;;;;;;;12.47;8.50;;;;;;;13.08;91.17;98304.53;4971372;28;20686;-55
2022/09/24 07:39:39;;;;;;;10.80;8.30;;;;;;;13.09;91.73;98304.34;4973672;28;20237;-52
2022/09/24 07:42:06;;;;;;;16.20;8.13;;;;;;;13.11;91.70;98304.97;4973351;28;20278;-52
2022/09/24 07:44:33;;;;;;;14.60;8.40;;;;;;;13.10;93.12;98305.97;4977921;28;20238;-53
2022/09/24 07:46:59;;;;;;;10.83;7.90;;;;;;;13.11;93.11;98312.03;4975157;28;20227;-52
2022/09/24 07:49:28;;;;;;;12.57;7.97;;;;;;;13.12;93.11;98311.84;4973265;28;20784;-54
2022/09/24 07:51:55;;;;;;;10.80;8.47;;;;;;;13.20;93.09;98310.16;4975329;28;20248;-53
2022/09/24 07:54:21;;;;;;;11.63;7.97;;;;;;;13.29;93.00;98316.97;4970753;28;20759;-54
2022/09/24 07:56:49;;;;;;;11.10;8.03;;;;;;;13.38;92.78;98315.91;4975660;28;20241;-55
2022/09/24 07:59:16;;;;;;;12.67;8.43;;;;;;;13.52;92.59;98303.84;4972486;28;20276;-53
2022/09/24 08:01:42;;;;;;;9.80;7.40;;;;;;;13.66;92.64;98299.66;4976904;28;20789;-52
2022/09/24 08:04:09;;;;;;;7.60;5.73;;;;;;;13.82;91.91;98303.91;4971838;28;20257;-55
2022/09/24 08:06:36;;;;;;;8.07;6.37;;;;;;;14.05;91.71;98300.38;4974880;28;20320;-53
2022/09/24 08:09:03;;;;;;;13.83;9.20;;;;;;;14.25;90.16;98307.72;4975029;28;20283;-55
2022/09/24 08:11:30;;;;;;;16.10;12.63;;;;;;;14.34;88.95;98311.84;4972949;28;20748;-54
2022/09/24 08:13:58;;;;;;;15.90;12.77;;;;;;;14.43;88.66;98317.81;4970502;28;20258;-55
2022/09/24 08:16:25;;;;;;;13.33;9.57;;;;;;;14.56;88.24;98322.41;4966626;28;20236;-54
2022/09/24 08:18:52;;;;;;;11.27;9.00;;;;;;;14.66;86.94;98320.31;4976325;28;20680;-55
2022/09/24 08:21:19;;;;;;;11.07;7.37;;;;;;;14.68;85.01;98323.56;4974683;28;20229;-55
2022/09/24 08:23:46;;;;;;;11.47;8.20;;;;;;;14.84;85.03;98327.81;4976072;28;20250;-53
2022/09/24 08:26:14;;;;;;;12.60;9.97;;;;;;;14.83;85.03;98325.38;4970360;28;20214;-53
2022/09/24 08:28:41;;;;;;;12.03;8.43;;;;;;;14.94;83.82;98335.41;4975931;28;20264;-54
2022/09/24 08:31:12;;;;;;;10.87;6.93;;;;;;;15.04;82.10;98340.34;4970902;28;20223;-52
2022/09/24 08:33:39;;;;;;;10.10;7.23;;;;;;;15.14;80.75;98338.22;4975618;28;20239;-55
2022/09/24 08:36:08;;;;;;;12.87;7.17;;;;;;;15.05;79.28;98345.44;4956973;28;20230;-55
2022/09/24 08:38:35;;;;;;;14.10;6.90;;;;;;;14.96;80.11;98340.47;4973591;28;20282;-51
2022/09/24 08:41:16;;;;;;;8.60;6.10;;;;;;;14.81;80.33;98341.34;4973414;28;20231;-54
2022/09/24 08:43:52;;;;;;;10.17;6.93;;;;;;;14.89;80.89;98335.16;4970659;28;20242;-54
2022/09/24 08:49:15;;;;;;;9.20;6.70;;;;;;;14.86;81.66;98335.50;4969539;28;20225;-54
2022/09/24 08:51:56;;;;;;;9.47;7.00;;;;;;;14.78;81.88;98340.88;4973124;28;20229;-52
2022/09/24 08:54:28;;;;;;;11.20;8.43;;;;;;;14.70;81.71;98350.50;4970395;28;20258;-54
2022/09/24 08:56:56;;;;;;;14.67;9.00;;;;;;;14.56;82.56;98352.13;4974977;28;20812;-51
2022/09/24 08:59:29;;;;;;;10.93;8.60;;;;;;;14.53;85.84;98351.66;4970950;28;20227;-54
2022/09/24 09:02:13;;;;;;;11.70;8.60;;;;;;;14.51;88.03;98351.03;4974420;28;20579;-55
2022/09/24 09:04:48;;;;;;;14.90;9.50;;;;;;;14.45;87.80;98350.78;4970413;28;20224;-52
2022/09/24 09:07:21;;;;;;;14.27;8.50;;;;;;;14.54;88.77;98351.50;4969723;28;20878;-55
2022/09/24 09:09:52;;;;;;;10.20;8.57;;;;;;;14.74;85.97;98353.59;4967013;28;20639;-52
2022/09/24 09:12:23;;;;;;;13.67;8.87;;;;;;;14.78;85.15;98359.28;4971536;28;20228;-53
2022/09/24 09:14:58;;;;;;;11.23;8.67;;;;;;;14.81;86.97;98354.47;4974777;28;20974;-53
2022/09/24 09:17:36;;;;;;;13.33;8.07;;;;;;;15.11;88.27;98349.13;4969673;28;20243;-53
2022/09/24 09:20:10;;;;;;;11.20;7.80;;;;;;;15.22;88.66;98345.19;4978823;28;20250;-53
2022/09/24 09:22:43;;;;;;;8.43;6.90;;;;;;;15.54;87.56;98352.75;4975320;28;20228;-53
2022/09/24 09:25:18;;;;;;;8.93;5.90;;;;;;;15.92;86.48;98352.44;4977297;28;20270;-54
2022/09/24 09:27:46;;;;;;;14.17;9.93;;;;;;;16.18;85.76;98354.44;4978197;28;20238;-52
2022/09/24 09:30:15;;;;;;;13.77;10.80;;;;;;;16.32;83.96;98346.63;4976175;28;20284;-53
2022/09/24 09:32:59;;;;;;;7.50;5.60;;;;;;;16.38;85.05;98343.19;4976485;28;20653;-54
2022/09/24 09:35:33;;;;;;;3.20;2.47;;;;;;;16.35;82.65;98344.38;4966419;28;23208;-52
2022/09/24 09:38:07;;;;;;;2.97;2.40;;;;;;;16.32;82.65;98346.63;4980136;28;20819;-53
2022/09/24 09:40:40;;;;;;;3.67;2.63;;;;;;;16.36;82.11;98342.59;4974663;28;20247;-52
2022/09/24 09:43:10;;;;;;;4.60;2.77;;;;;;;16.30;81.32;98346.78;4974887;28;20225;-54
2022/09/24 09:45:43;;;;;;;3.20;2.43;;;;;;;16.51;80.50;98342.44;4977332;28;20612;-51
2022/09/24 09:48:13;;;;;;;7.27;2.27;;;;;;;16.74;79.68;98344.75;4973827;28;20621;-54
2022/09/24 09:50:42;;;;;;;3.40;2.40;;;;;;;16.91;79.55;98342.59;4976325;28;20243;-52
2022/09/24 09:53:19;;;;;;;5.03;2.33;;;;;;;17.06;77.61;98349.53;4973434;28;20732;-54
2022/09/24 09:55:52;;;;;;;2.73;2.27;;;;;;;17.22;76.05;98351.78;4979381;28;20236;-54
2022/09/24 09:58:22;;;;;;;5.43;4.10;;;;;;;17.53;73.90;98355.69;4976278;28;20230;-54
2022/09/24 10:00:50;;;;;;;7.87;4.50;;;;;;;17.32;75.41;98361.13;4978589;28;20316;-54
2022/09/24 10:03:27;;;;;;;6.83;4.60;;;;;;;17.19;77.05;98356.66;4974297;28;20777;-55
2022/09/24 10:05:59;;;;;;;8.83;5.27;;;;;;;17.25;76.52;98364.56;4976293;28;20749;-55
2022/09/24 10:08:26;;;;;;;11.43;5.10;;;;;;;17.20;77.15;98361.72;4974503;28;20759;-54
2022/09/24 10:10:55;;;;;;;6.63;4.90;;;;;;;17.25;78.34;98354.03;4977277;28;20265;-54
2022/09/24 10:13:22;;;;;;;7.93;5.20;;;;;;;17.26;78.50;98345.09;4973133;28;21995;-52
2022/09/24 10:15:50;;;;;;;7.47;5.27;;;;;;;17.41;81.11;98346.72;4972064;28;21139;-51
2022/09/24 10:18:26;;;;;;;11.07;5.87;;;;;;;17.52;79.25;98356.69;4974517;28;20767;-54
2022/09/24 10:20:55;;;;;;;8.93;4.77;;;;;;;17.85;78.46;98353.22;4976147;28;20230;-53
2022/09/24 10:23:30;;;;;;;6.33;4.90;;;;;;;17.91;79.12;98361.34;4973063;28;20248;-55
2022/09/24 10:26:00;;;;;;;4.37;3.30;;;;;;;18.08;75.68;98351.19;4975149;28;20248;-54
2022/09/24 10:31:16;;;;;;;8.07;3.17;;;;;;;18.43;73.58;98353.53;4974813;28;20317;-54
2022/09/24 10:33:45;;;;;;;5.30;3.20;;;;;;;18.55;72.43;98345.75;4970218;28;20249;-53
2022/09/24 10:36:16;;;;;;;5.57;3.27;;;;;;;18.57;71.51;98349.81;4972425;28;20349;-53
2022/09/24 10:38:43;;;;;;;3.23;2.77;;;;;;;18.90;70.88;98348.03;4978247;28;20241;-56
2022/09/24 10:41:31;;;;;;;5.13;2.70;;;;;;;19.18;70.53;98342.41;4955127;28;20233;-57
2022/09/24 10:44:02;;;;;;;2.50;2.07;;;;;;;19.56;65.55;98348.63;4971386;28;20234;-57
2022/09/24 10:46:50;;;;;;;3.40;2.60;;;;;;;19.43;65.03;98346.09;4971697;28;20487;-56
2022/09/24 10:49:27;;;;;;;3.07;2.30;;;;;;;19.47;68.13;98340.16;4971855;28;20655;-56
2022/09/24 10:52:03;;;;;;;2.27;2.00;;;;;;;19.59;64.77;98340.25;4977207;28;20252;-54
2022/09/24 10:54:48;;;;;;;4.10;2.13;;;;;;;19.38;66.72;98338.00;4971129;28;20729;-56
2022/09/24 10:57:25;;;;;;;4.93;3.10;;;;;;;19.64;66.14;98334.31;4972236;28;20277;-57
2022/09/24 11:00:03;;;;;;;3.60;2.70;;;;;;;19.77;65.44;98336.03;4978293;28;20239;-59
2022/09/24 11:03:05;;;;;;;5.93;2.13;;;;;;;19.78;63.71;98337.66;4972297;28;20723;-60
2022/09/24 11:05:35;;;;;;;3.00;2.60;;;;;;;19.62;66.82;98333.72;4937167;28;20638;-60
2022/09/24 11:08:15;;;;;;;3.10;2.20;;;;;;;19.20;66.44;98339.53;4977922;28;20254;-58
2022/09/24 11:10:59;;;;;;;3.57;2.47;;;;;;;19.31;67.50;98335.41;4975342;28;20321;-56
2022/09/24 11:13:39;;;;;;;3.77;2.37;;;;;;;19.09;66.82;98338.41;4974732;28;20245;-58
2022/09/24 11:16:38;;;;;;;2.43;1.87;;;;;;;19.15;66.31;98331.44;4984389;28;20236;-56
2022/09/24 11:19:18;;;;;;;3.27;2.37;;;;;;;18.99;68.29;98328.28;4982192;28;20621;-57
2022/09/24 11:22:01;;;;;;;3.67;2.87;;;;;;;19.06;66.47;98325.59;4982460;28;20705;-57
2022/09/24 11:24:44;;;;;;;4.93;2.50;;;;;;;18.98;66.77;98323.19;4981983;28;20575;-57
2022/09/24 11:27:37;;;;;;;4.07;3.10;;;;;;;19.02;68.33;98324.41;4982674;28;20292;-57
2022/09/24 11:30:11;;;;;;;3.97;2.53;;;;;;;18.93;66.65;98326.47;4985572;28;20760;-58
2022/09/24 11:32:49;;;;;;;4.53;2.63;;;;;;;19.10;67.21;98325.97;4983468;28;20237;-57
2022/09/24 11:35:29;;;;;;;5.37;2.50;;;;;;;18.91;66.83;98331.16;4981142;28;20763;-58
2022/09/24 11:38:00;;;;;;;3.73;2.40;;;;;;;19.18;66.35;98323.06;4985206;28;20245;-58
2022/09/24 11:40:41;;;;;;;2.80;1.93;;;;;;;19.05;66.59;98323.19;4978274;28;20243;-58
2022/09/24 11:43:37;;;;;;;3.33;2.30;;;;;;;18.82;68.11;98322.66;4977773;28;20229;-57
2022/09/24 11:46:18;;;;;;;3.57;2.30;;;;;;;18.91;67.68;98317.09;4985234;28;20229;-57
2022/09/24 11:49:01;;;;;;;3.10;2.30;;;;;;;18.78;68.00;98315.38;4982019;28;20230;-57
2022/09/24 11:51:38;;;;;;;3.90;2.40;;;;;;;18.97;66.09;98318.94;4982525;28;20788;-58
2022/09/24 11:54:14;;;;;;;3.87;2.17;;;;;;;18.97;66.87;98322.41;4984138;28;20335;-57
2022/09/24 11:56:47;;;;;;;4.03;2.10;;;;;;;18.69;66.52;98315.59;4982421;28;20879;-56